createdAt,value
2023-02-16T00:01:34.568Z,81.23
2023-02-16T00:04:03.397Z,81.45
2023-02-16T00:06:31.126Z,81.21
2023-02-16T00:09:00.236Z,84.44
2023-02-16T00:11:51.878Z,83.50
2023-02-16T00:14:26.067Z,82.29
2023-02-16T00:16:57.444Z,81.30
2023-02-16T00:19:27.470Z,81.01
2023-02-16T00:21:57.315Z,80.33
2023-02-16T00:24:30.378Z,81.61
2023-02-16T00:26:59.372Z,81.80
2023-02-16T00:29:29.356Z,82.07
2023-02-16T00:31:58.813Z,82.80
2023-02-16T00:34:30.124Z,83.12
2023-02-16T00:36:59.483Z,82.79
2023-02-16T00:39:28.976Z,81.91
2023-02-16T00:42:00.450Z,79.80
2023-02-16T00:44:37.084Z,80.86
2023-02-16T00:47:16.338Z,82.86
2023-02-16T00:49:44.145Z,83.92
2023-02-16T00:52:28.751Z,83.06
2023-02-16T00:54:58.203Z,81.88
2023-02-16T00:57:28.502Z,81.14
2023-02-16T01:00:01.687Z,80.44
2023-02-16T01:02:30.294Z,80.55
2023-02-16T01:04:58.074Z,82.14
2023-02-16T01:07:45.785Z,84.70
2023-02-16T01:10:32.285Z,85.77
2023-02-16T01:13:01.502Z,85.62
2023-02-16T01:15:29.506Z,83.69
2023-02-16T01:18:00.688Z,82.35
2023-02-16T01:20:29.007Z,81.29
2023-02-16T01:22:56.838Z,80.61
2023-02-16T01:25:26.022Z,80.10
2023-02-16T01:27:54.343Z,79.73
2023-02-16T01:30:23.772Z,79.93
2023-02-16T01:32:52.395Z,79.74
2023-02-16T01:35:21.227Z,81.67
2023-02-16T01:37:49.633Z,81.66
2023-02-16T01:40:31.907Z,81.44
2023-02-16T01:43:07.894Z,81.08
2023-02-16T01:45:39.127Z,80.93
2023-02-16T01:48:14.949Z,80.22
2023-02-16T01:50:50.585Z,79.02
2023-02-16T01:53:24.548Z,80.51
2023-02-16T01:55:59.224Z,81.55
2023-02-16T01:58:36.759Z,81.98
2023-02-16T02:01:39.856Z,85.03
2023-02-16T02:04:33.138Z,86.12
2023-02-16T02:07:01.864Z,89.34
2023-02-16T02:09:38.460Z,89.15
2023-02-16T02:12:16.341Z,88.46
2023-02-16T02:14:44.114Z,87.27
2023-02-16T02:17:15.623Z,88.67
2023-02-16T02:19:52.017Z,87.69
2023-02-16T02:23:12.181Z,86.14
2023-02-16T02:26:09.418Z,84.35
2023-02-16T02:28:46.354Z,83.75
2023-02-16T02:31:23.469Z,83.33
2023-02-16T02:34:04.687Z,82.70
2023-02-16T02:36:40.459Z,81.75
2023-02-16T02:39:26.171Z,80.52
2023-02-16T02:42:05.368Z,80.81
2023-02-16T02:45:05.558Z,80.18
2023-02-16T02:47:41.290Z,81.59
2023-02-16T02:51:02.764Z,83.03
2023-02-16T02:53:31.645Z,82.89
2023-02-16T02:56:19.450Z,82.18
2023-02-16T02:59:08.133Z,81.56
2023-02-16T03:01:42.461Z,82.82
2023-02-16T03:04:14.733Z,82.65
2023-02-16T03:06:48.695Z,83.84
2023-02-16T03:09:17.231Z,85.14
2023-02-16T03:12:05.119Z,83.97
2023-02-16T03:14:35.566Z,83.11
2023-02-16T03:17:28.622Z,82.22
2023-02-16T03:20:18.898Z,83.87
2023-02-16T03:23:05.090Z,83.38
2023-02-16T03:25:55.660Z,83.66
2023-02-16T03:28:43.418Z,84.13
2023-02-16T03:31:15.298Z,83.58
2023-02-16T03:33:47.818Z,83.94
2023-02-16T03:36:15.611Z,85.81
2023-02-16T03:38:43.368Z,85.82
2023-02-16T03:41:13.416Z,84.72
2023-02-16T03:43:41.246Z,84.06
2023-02-16T03:46:09.138Z,83.14
2023-02-16T03:48:36.945Z,81.41
2023-02-16T03:51:08.256Z,81.36
2023-02-16T03:53:36.046Z,81.70
2023-02-16T03:56:03.793Z,81.51
2023-02-16T03:58:31.630Z,80.53
2023-02-16T04:01:00.372Z,79.62
2023-02-16T04:03:28.229Z,79.90
2023-02-16T04:05:56.698Z,79.42
2023-02-16T04:08:25.811Z,79.42
2023-02-16T04:10:54.217Z,80.03
2023-02-16T04:13:21.127Z,79.22
2023-02-16T04:15:51.166Z,78.50
2023-02-16T04:18:18.912Z,79.42
2023-02-16T04:20:46.586Z,79.37
2023-02-16T04:23:16.654Z,78.83
2023-02-16T04:25:45.781Z,79.34
2023-02-16T04:28:13.490Z,79.58
2023-02-16T04:30:41.296Z,80.70
2023-02-16T04:33:09.161Z,82.01
2023-02-16T04:35:36.933Z,82.36
2023-02-16T04:38:04.742Z,82.52
2023-02-16T04:40:32.596Z,81.30
2023-02-16T04:43:01.672Z,81.24
2023-02-16T04:45:29.376Z,82.83
2023-02-16T04:47:57.126Z,82.50
2023-02-16T04:50:24.962Z,82.48
2023-02-16T04:52:52.615Z,83.99
2023-02-16T04:55:20.480Z,86.00
2023-02-16T04:57:48.172Z,87.44
2023-02-16T05:00:18.028Z,88.27
2023-02-16T05:02:45.973Z,88.58
2023-02-16T05:05:13.672Z,90.07
2023-02-16T05:07:41.386Z,92.21
2023-02-16T05:10:11.670Z,93.20
2023-02-16T05:13:08.277Z,92.36
2023-02-16T05:15:40.076Z,91.40
2023-02-16T05:18:07.902Z,91.36
2023-02-16T05:20:52.977Z,92.29
2023-02-16T05:23:20.789Z,91.95
2023-02-16T05:25:48.626Z,91.11
2023-02-16T05:28:16.573Z,89.65
2023-02-16T05:30:48.657Z,89.66
2023-02-16T05:33:16.431Z,90.17
2023-02-16T05:35:44.197Z,90.38
2023-02-16T05:38:11.920Z,89.46
2023-02-16T05:40:39.736Z,87.87
2023-02-16T05:43:07.425Z,84.56
2023-02-16T05:45:35.126Z,84.14
2023-02-16T05:48:04.230Z,84.11
2023-02-16T05:50:31.969Z,83.07
2023-02-16T05:53:00.195Z,83.35
2023-02-16T05:55:28.043Z,82.47
2023-02-16T05:57:55.841Z,84.08
2023-02-16T06:00:23.846Z,87.55
2023-02-16T06:02:51.623Z,86.21
2023-02-16T06:05:20.755Z,85.89
2023-02-16T06:07:48.543Z,83.95
2023-02-16T06:10:16.598Z,83.97
2023-02-16T06:12:46.532Z,82.82
2023-02-16T06:15:14.344Z,82.02
2023-02-16T06:17:44.617Z,82.00
2023-02-16T06:20:12.911Z,86.50
2023-02-16T06:22:41.943Z,88.35
2023-02-16T06:25:11.964Z,88.07
2023-02-16T06:27:39.632Z,87.54
2023-02-16T06:30:08.849Z,85.99
2023-02-16T06:32:36.665Z,84.49
2023-02-16T06:35:05.011Z,84.90
2023-02-16T06:37:32.747Z,84.67
2023-02-16T06:40:01.791Z,84.76
2023-02-16T06:42:29.475Z,85.01
2023-02-16T06:44:57.256Z,84.81
2023-02-16T06:47:24.991Z,84.43
2023-02-16T06:49:52.745Z,83.77
2023-02-16T06:52:20.695Z,83.11
2023-02-16T06:54:48.487Z,84.18
2023-02-16T06:57:17.734Z,84.18
2023-02-16T06:59:45.505Z,85.44
2023-02-16T07:02:13.379Z,84.87
2023-02-16T07:04:41.102Z,85.34
2023-02-16T07:07:09.033Z,85.63
2023-02-16T07:09:37.307Z,85.73
2023-02-16T07:12:05.400Z,86.65
2023-02-16T07:14:34.681Z,86.23
2023-02-16T07:17:04.373Z,85.36
2023-02-16T07:19:33.787Z,84.30
2023-02-16T07:22:01.940Z,84.52
2023-02-16T07:24:29.945Z,85.09
2023-02-16T07:26:59.814Z,84.54
2023-02-16T07:29:27.602Z,83.65
2023-02-16T07:31:57.728Z,85.75
2023-02-16T07:34:25.673Z,85.54
2023-02-16T07:36:53.412Z,83.85
2023-02-16T07:39:21.189Z,81.88
2023-02-16T07:41:49.026Z,80.71
2023-02-16T07:44:19.268Z,79.33
2023-02-16T07:46:47.113Z,78.28
2023-02-16T07:49:16.227Z,76.83
2023-02-16T07:51:44.861Z,75.84
2023-02-16T07:54:12.698Z,77.40
2023-02-16T07:56:40.471Z,76.35
2023-02-16T07:59:08.424Z,76.92
2023-02-16T08:01:36.280Z,74.33
2023-02-16T08:04:07.214Z,75.54
2023-02-16T08:06:36.902Z,73.61
2023-02-16T08:09:04.860Z,72.63
2023-02-16T08:11:34.842Z,70.15
2023-02-16T08:14:02.681Z,68.94
2023-02-16T08:16:30.780Z,69.43
2023-02-16T08:19:00.655Z,68.31
2023-02-16T08:21:31.020Z,67.39
2023-02-16T08:24:01.717Z,66.76
2023-02-16T08:26:36.852Z,65.40
2023-02-16T08:29:05.947Z,66.30
2023-02-16T08:31:36.627Z,65.10
2023-02-16T08:34:05.807Z,63.01
2023-02-16T08:36:36.719Z,63.45
2023-02-16T08:39:07.797Z,62.29
2023-02-16T08:41:37.588Z,61.42
2023-02-16T08:44:07.075Z,60.83
2023-02-16T08:46:37.251Z,60.06
2023-02-16T08:49:05.445Z,59.65
2023-02-16T08:51:35.723Z,60.93
2023-02-16T08:54:07.814Z,58.55
2023-02-16T08:56:36.106Z,60.25
2023-02-16T08:59:04.237Z,57.38
2023-02-16T09:01:32.400Z,56.25
2023-02-16T09:04:00.219Z,56.74
2023-02-16T09:06:27.972Z,58.93
2023-02-16T09:08:57.488Z,57.80
2023-02-16T09:11:26.618Z,55.53
2023-02-16T09:13:54.502Z,55.99
2023-02-16T09:16:27.934Z,55.57
2023-02-16T09:18:57.231Z,56.82
2023-02-16T09:21:26.906Z,54.17
2023-02-16T09:23:57.661Z,55.35
2023-02-16T09:26:29.209Z,54.52
2023-02-16T09:28:58.865Z,54.74
2023-02-16T09:31:29.733Z,54.08
2023-02-16T09:33:59.441Z,53.53
2023-02-16T09:36:27.350Z,52.45
2023-02-16T09:38:56.191Z,52.31
2023-02-16T09:41:46.351Z,52.58
2023-02-16T09:44:22.995Z,52.88
2023-02-16T09:46:51.247Z,52.34
2023-02-16T09:49:27.549Z,53.57
2023-02-16T09:52:03.779Z,51.65
2023-02-16T09:54:42.151Z,52.38
2023-02-16T09:57:20.744Z,51.43
2023-02-16T09:59:56.313Z,52.90
2023-02-16T10:02:42.557Z,52.38
2023-02-16T10:05:18.475Z,52.59
2023-02-16T10:07:57.408Z,52.16
2023-02-16T10:10:28.979Z,51.68
2023-02-16T10:13:05.292Z,51.02
2023-02-16T10:15:34.824Z,51.25
2023-02-16T10:18:10.052Z,51.93
2023-02-16T10:20:41.497Z,50.58
2023-02-16T10:23:24.538Z,50.84
2023-02-16T10:25:56.528Z,50.09
2023-02-16T10:28:33.994Z,49.06
2023-02-16T10:31:05.881Z,50.08
2023-02-16T10:33:43.108Z,49.81
2023-02-16T10:36:22.844Z,49.22
2023-02-16T10:38:59.804Z,49.29
2023-02-16T10:41:33.789Z,48.73
2023-02-16T10:44:11.158Z,48.08
2023-02-16T10:46:42.948Z,47.98
2023-02-16T10:49:15.247Z,47.19
2023-02-16T10:51:53.001Z,45.89
2023-02-16T10:54:26.875Z,46.24
2023-02-16T10:57:00.995Z,46.15
2023-02-16T10:59:38.246Z,46.35
2023-02-16T11:02:21.959Z,44.99
2023-02-16T11:04:52.486Z,44.35
2023-02-16T11:07:22.190Z,44.14
2023-02-16T11:09:52.970Z,44.49
2023-02-16T11:12:30.215Z,44.09
2023-02-16T11:15:03.414Z,42.62
2023-02-16T11:17:34.218Z,42.82
2023-02-16T11:20:10.095Z,41.93
2023-02-16T11:22:39.438Z,42.58
2023-02-16T11:25:26.863Z,43.83
2023-02-16T11:27:58.072Z,42.37
2023-02-16T11:30:33.922Z,41.74
2023-02-16T11:33:03.599Z,42.71
2023-02-16T11:35:33.870Z,42.77
2023-02-16T11:38:01.761Z,41.14
2023-02-16T11:40:32.671Z,41.99
2023-02-16T11:43:02.866Z,41.65
2023-02-16T11:45:34.550Z,40.71
2023-02-16T11:48:05.790Z,40.45
2023-02-16T11:50:35.246Z,38.94
2023-02-16T11:53:16.716Z,39.70
2023-02-16T11:55:47.975Z,40.27
2023-02-16T11:58:20.153Z,39.72
2023-02-16T12:01:08.605Z,39.88
2023-02-16T12:04:01.387Z,37.81
2023-02-16T12:06:40.006Z,39.00
2023-02-16T12:09:16.104Z,38.71
2023-02-16T12:11:57.561Z,39.47
2023-02-16T12:14:36.737Z,40.06
2023-02-16T12:17:22.771Z,38.88
2023-02-16T12:19:58.757Z,37.83
2023-02-16T12:22:35.100Z,37.63
2023-02-16T12:25:22.417Z,37.99
2023-02-16T12:27:53.659Z,39.08
2023-02-16T12:30:34.131Z,38.64
2023-02-16T12:33:16.110Z,39.07
2023-02-16T12:36:15.812Z,37.80
2023-02-16T12:38:52.946Z,38.27
2023-02-16T12:41:30.159Z,36.37
2023-02-16T12:44:03.713Z,36.73
2023-02-16T12:46:37.863Z,39.55
2023-02-16T12:49:16.991Z,40.31
2023-02-16T12:51:51.548Z,39.13
2023-02-16T12:54:26.194Z,38.88
2023-02-16T12:57:01.691Z,39.91
2023-02-16T12:59:38.917Z,40.83
2023-02-16T13:02:16.478Z,40.19
2023-02-16T13:04:51.707Z,39.62
2023-02-16T13:07:27.606Z,40.70
2023-02-16T13:10:02.514Z,40.79
2023-02-16T13:12:35.916Z,41.21
2023-02-16T13:15:14.825Z,40.20
2023-02-16T13:17:49.041Z,40.43
2023-02-16T13:20:21.771Z,39.69
2023-02-16T13:23:28.270Z,41.28
2023-02-16T13:26:10.955Z,42.39
2023-02-16T13:29:04.487Z,43.03
2023-02-16T13:31:48.106Z,43.01
2023-02-16T13:34:51.555Z,42.73
2023-02-16T13:37:32.585Z,42.30
2023-02-16T13:40:23.547Z,43.55
2023-02-16T13:43:11.807Z,43.93
2023-02-16T13:45:42.510Z,43.95
2023-02-16T13:48:24.732Z,44.21
2023-02-16T13:51:00.852Z,44.16
2023-02-16T13:53:37.633Z,44.45
2023-02-16T13:56:21.961Z,44.26
2023-02-16T13:58:50.565Z,44.32
2023-02-16T14:01:41.907Z,43.56
2023-02-16T14:04:34.162Z,43.89
2023-02-16T14:07:23.692Z,44.33
2023-02-16T14:09:52.897Z,44.67
2023-02-16T14:12:31.348Z,45.24
2023-02-16T14:15:05.334Z,44.99
2023-02-16T14:17:35.087Z,45.27
2023-02-16T14:20:06.761Z,44.97
2023-02-16T14:22:49.850Z,44.50
2023-02-16T14:25:38.864Z,45.81
2023-02-16T14:28:22.868Z,46.71
2023-02-16T14:30:54.745Z,46.91
2023-02-16T14:33:39.614Z,46.38
2023-02-16T14:36:16.940Z,46.84
2023-02-16T14:38:47.435Z,45.89
2023-02-16T14:41:29.191Z,45.10
2023-02-16T14:44:22.089Z,45.52
2023-02-16T14:46:58.417Z,45.16
2023-02-16T14:49:52.390Z,44.56
2023-02-16T14:53:01.667Z,44.03
2023-02-16T14:55:58.493Z,44.45
2023-02-16T14:58:33.153Z,43.97
2023-02-16T15:01:09.447Z,44.05
2023-02-16T15:03:45.588Z,44.38
2023-02-16T15:06:22.768Z,44.07
2023-02-16T15:08:59.232Z,44.50
2023-02-16T15:11:34.150Z,45.14
2023-02-16T15:14:11.261Z,45.26
2023-02-16T15:16:42.063Z,45.71
2023-02-16T15:19:18.718Z,45.93
2023-02-16T15:21:47.285Z,45.50
2023-02-16T15:24:24.556Z,46.22
2023-02-16T15:27:01.805Z,46.20
2023-02-16T15:29:33.507Z,46.41
2023-02-16T15:32:07.595Z,46.46
2023-02-16T15:34:38.565Z,46.24
2023-02-16T15:37:26.803Z,46.54
2023-02-16T15:40:15.915Z,47.03
2023-02-16T15:42:45.903Z,46.99
2023-02-16T15:45:29.314Z,47.04
2023-02-16T15:48:22.887Z,47.12
2023-02-16T15:50:53.590Z,47.61
2023-02-16T15:53:34.779Z,46.97
2023-02-16T15:56:06.026Z,46.84
2023-02-16T15:58:34.720Z,47.18
2023-02-16T16:01:04.210Z,47.33
2023-02-16T16:03:32.216Z,47.45
2023-02-16T16:06:05.002Z,47.30
2023-02-16T16:08:33.728Z,47.60
2023-02-16T16:11:01.935Z,47.33
2023-02-16T16:13:32.507Z,47.72
2023-02-16T16:16:04.545Z,47.97
2023-02-16T16:18:46.111Z,48.29
2023-02-16T16:21:29.040Z,48.76
2023-02-16T16:24:01.894Z,48.93
2023-02-16T16:26:31.829Z,48.78
2023-02-16T16:29:00.333Z,49.11
2023-02-16T16:31:41.797Z,49.45
2023-02-16T16:34:30.961Z,49.53
2023-02-16T16:36:59.988Z,49.75
2023-02-16T16:39:29.430Z,50.16
2023-02-16T16:42:24.712Z,50.03
2023-02-16T16:45:07.041Z,50.50
2023-02-16T16:47:38.977Z,51.15
2023-02-16T16:50:31.718Z,51.09
2023-02-16T16:53:02.510Z,51.03
2023-02-16T16:55:33.478Z,51.09
2023-02-16T16:58:07.852Z,51.64
2023-02-16T17:00:38.356Z,51.88
2023-02-16T17:03:08.903Z,51.45
2023-02-16T17:05:39.896Z,52.41
2023-02-16T17:08:07.784Z,51.48
2023-02-16T17:10:38.352Z,51.90
2023-02-16T17:13:06.368Z,51.81
2023-02-16T17:15:43.186Z,51.42
2023-02-16T17:18:16.380Z,51.25
2023-02-16T17:20:48.389Z,51.23
2023-02-16T17:23:18.529Z,50.73
2023-02-16T17:25:46.982Z,50.67
2023-02-16T17:28:15.807Z,50.76
2023-02-16T17:30:43.869Z,50.50
2023-02-16T17:33:12.002Z,50.73
2023-02-16T17:35:42.866Z,50.98
2023-02-16T17:38:14.643Z,51.43
2023-02-16T17:40:43.795Z,51.35
2023-02-16T17:43:14.432Z,51.10
2023-02-16T17:45:42.780Z,51.28
2023-02-16T17:48:17.143Z,52.09
2023-02-16T17:50:45.293Z,52.28
2023-02-16T17:53:15.333Z,51.85
2023-02-16T17:55:43.675Z,51.96
2023-02-16T17:58:11.837Z,51.93
2023-02-16T18:00:40.499Z,51.68
2023-02-16T18:03:08.787Z,51.66
2023-02-16T18:05:38.021Z,51.62
2023-02-16T18:08:06.533Z,51.42
2023-02-16T18:10:39.694Z,50.99
2023-02-16T18:13:08.307Z,50.72
2023-02-16T18:15:38.914Z,51.08
2023-02-16T18:18:06.884Z,51.73
2023-02-16T18:20:37.793Z,52.11
2023-02-16T18:23:06.353Z,53.28
2023-02-16T18:25:36.014Z,54.08
2023-02-16T18:28:04.279Z,55.09
2023-02-16T18:30:32.239Z,56.14
2023-02-16T18:33:00.047Z,56.81
2023-02-16T18:35:27.857Z,57.29
2023-02-16T18:37:55.762Z,58.57
2023-02-16T18:40:24.540Z,59.44
2023-02-16T18:42:53.641Z,59.66
2023-02-16T18:45:21.971Z,59.93
2023-02-16T18:47:50.053Z,60.29
2023-02-16T18:50:17.858Z,59.84
2023-02-16T18:52:46.153Z,59.79
2023-02-16T18:55:15.234Z,60.21
2023-02-16T18:57:45.704Z,60.18
2023-02-16T19:00:19.378Z,60.30
2023-02-16T19:02:47.128Z,59.87
2023-02-16T19:05:15.055Z,60.12
2023-02-16T19:07:43.070Z,60.87
2023-02-16T19:10:12.034Z,61.79
2023-02-16T19:12:40.009Z,62.47
2023-02-16T19:15:09.125Z,62.61
2023-02-16T19:17:38.781Z,63.43
2023-02-16T19:20:09.665Z,63.49
2023-02-16T19:22:37.866Z,64.13
2023-02-16T19:25:06.263Z,63.88
2023-02-16T19:27:34.283Z,63.40
2023-02-16T19:30:02.435Z,63.39
2023-02-16T19:32:30.665Z,62.87
2023-02-16T19:34:59.879Z,63.06
2023-02-16T19:37:27.699Z,63.11
2023-02-16T19:39:55.491Z,62.42
2023-02-16T19:42:23.231Z,61.82
2023-02-16T19:44:50.952Z,61.25
2023-02-16T19:47:18.799Z,60.73
2023-02-16T19:49:46.809Z,60.51
2023-02-16T19:52:17.035Z,60.31
2023-02-16T19:54:44.977Z,59.17
2023-02-16T19:57:12.748Z,59.15
2023-02-16T19:59:40.590Z,59.08
2023-02-16T20:02:08.565Z,58.78
2023-02-16T20:04:38.477Z,58.82
2023-02-16T20:07:06.271Z,58.27
2023-02-16T20:09:36.692Z,58.39
2023-02-16T20:12:05.486Z,58.62
2023-02-16T20:14:33.510Z,58.81
2023-02-16T20:17:02.033Z,58.71
2023-02-16T20:19:29.889Z,59.21
2023-02-16T20:21:57.717Z,60.32
2023-02-16T20:24:25.472Z,60.28
2023-02-16T20:26:54.663Z,60.83
2023-02-16T20:29:24.800Z,62.10
2023-02-16T20:31:54.702Z,62.04
2023-02-16T20:34:23.340Z,63.43
2023-02-16T20:36:51.371Z,64.23
2023-02-16T20:39:19.517Z,66.78
2023-02-16T20:41:47.412Z,66.81
2023-02-16T20:44:19.332Z,68.05
2023-02-16T20:46:47.184Z,67.98
2023-02-16T20:49:16.268Z,68.30
2023-02-16T20:51:44.045Z,68.24
2023-02-16T20:54:12.598Z,68.65
2023-02-16T20:56:40.545Z,68.42
2023-02-16T20:59:08.307Z,68.63
2023-02-16T21:01:40.021Z,68.86
2023-02-16T21:04:09.294Z,68.49
2023-02-16T21:06:39.503Z,68.51
2023-02-16T21:09:09.334Z,67.84
2023-02-16T21:11:38.225Z,68.10
2023-02-16T21:14:06.548Z,67.55
2023-02-16T21:16:34.470Z,67.07
2023-02-16T21:19:11.730Z,66.86
2023-02-16T21:21:45.016Z,66.33
2023-02-16T21:24:12.824Z,66.59
2023-02-16T21:26:40.626Z,66.39
2023-02-16T21:29:08.425Z,66.43
2023-02-16T21:31:36.254Z,66.24
2023-02-16T21:34:05.418Z,65.98
2023-02-16T21:36:33.259Z,65.38
2023-02-16T21:39:03.103Z,65.20
2023-02-16T21:41:30.066Z,64.84
2023-02-16T21:44:01.233Z,65.18
2023-02-16T21:46:31.541Z,64.55
2023-02-16T21:48:58.975Z,63.41
2023-02-16T21:51:30.143Z,62.03
2023-02-16T21:53:58.729Z,62.26
2023-02-16T21:56:35.778Z,60.93
2023-02-16T21:59:05.079Z,59.58
2023-02-16T22:01:35.870Z,60.38
2023-02-16T22:04:04.640Z,59.95
2023-02-16T22:06:39.752Z,60.13
2023-02-16T22:09:09.547Z,60.35
2023-02-16T22:11:37.621Z,58.51
2023-02-16T22:14:05.703Z,58.38
2023-02-16T22:16:35.961Z,58.35
2023-02-16T22:19:07.388Z,58.26
2023-02-16T22:21:38.587Z,57.41
2023-02-16T22:24:07.645Z,57.55
2023-02-16T22:26:36.771Z,57.15
2023-02-16T22:29:05.948Z,57.50
2023-02-16T22:31:33.924Z,57.56
2023-02-16T22:34:03.998Z,57.55
2023-02-16T22:36:34.893Z,57.73
2023-02-16T22:39:04.315Z,57.74
2023-02-16T22:41:32.114Z,57.73
2023-02-16T22:44:00.291Z,57.63
2023-02-16T22:46:29.708Z,58.00
2023-02-16T22:48:59.199Z,58.36
2023-02-16T22:51:29.287Z,58.14
2023-02-16T22:53:58.156Z,58.27
2023-02-16T22:56:27.718Z,58.35
2023-02-16T22:58:57.611Z,58.76
2023-02-16T23:01:27.046Z,58.61
2023-02-16T23:03:57.282Z,58.94
2023-02-16T23:06:26.964Z,58.95
2023-02-16T23:08:56.582Z,58.38
2023-02-16T23:11:25.653Z,58.33
2023-02-16T23:13:55.036Z,58.04
2023-02-16T23:16:25.694Z,57.91
2023-02-16T23:18:53.536Z,57.95
2023-02-16T23:21:23.727Z,57.99
2023-02-16T23:23:52.822Z,58.29
2023-02-16T23:26:23.176Z,58.27
2023-02-16T23:28:52.626Z,57.98
2023-02-16T23:31:24.116Z,57.59
2023-02-16T23:33:52.545Z,56.80
2023-02-16T23:36:20.437Z,56.51
2023-02-16T23:38:48.163Z,56.59
2023-02-16T23:41:16.329Z,56.91
2023-02-16T23:43:46.484Z,56.21
2023-02-16T23:46:14.375Z,57.00
2023-02-16T23:48:43.434Z,56.32
2023-02-16T23:51:12.192Z,57.22
2023-02-16T23:53:40.174Z,56.69
2023-02-16T23:56:09.616Z,56.50
2023-02-16T23:58:41.102Z,56.78
